»·PEaware :: ACA314 KPHX-KSLC

ACA314 :: KPHX-KSLC

FLIGHT INFORMATION

Flight Status: Arrived
Operator:
Air Canada
More flights by this operator :: More flights under this callsign
Pilot: Tim B. (15084)
Aircraft: AIRBUS A320
(A320)
More flights by this aircraft type
Origin: KPHX Phoenix Sky Harbor Intl
United States
Destination: KSLC Salt Lake City Intl
United States
More flights between these airports :: More routes between these airports
Route: +QUAKY1 GCN BCE QWENN5
File this flight plan on PilotEdge
Remarks:
Altitude:
(Current/Filed)
34,000ft
Speed:
(Current/Filed)
500kts
Departed: 10-May-19 12:46 PM
Arrived: 10-May-19 01:58 PM
Distance/Time
Traveled:
441nm/1:11
Distance/Time
To Go:
Arrived

Flight Plot

Page will automatically refresh every two minutes.

Flight plan parsing failed; only flown route is shown


Map Options




Map Legend


Flown Route
Filed Route
Departure Airport
Arrival Airport
Navaid (VOR, NDB)
Fix

Horizontal Profiles

Position Reports

Time Latitude Longitude Heading Altitude Ground
Speed
10-May-19 11:59 33.437856 -112.009327 102 1128ft 0kts
10-May-19 12:00 33.437856 -112.009327 102 1128ft 0kts
10-May-19 12:01 33.437856 -112.009327 102 1128ft 0kts
10-May-19 12:02 33.437856 -112.009327 102 1128ft 0kts
10-May-19 12:03 33.437856 -112.009327 102 1128ft 0kts
10-May-19 12:05 33.437856 -112.009327 102 1128ft 0kts
10-May-19 12:06 33.437856 -112.009327 102 1128ft 0kts
10-May-19 12:07 33.437856 -112.009327 102 1128ft 0kts
10-May-19 12:08 33.437856 -112.009327 102 1128ft 0kts
10-May-19 12:09 33.437856 -112.009327 102 1128ft 0kts
10-May-19 12:10 33.437856 -112.009327 102 1128ft 0kts
10-May-19 12:11 33.437856 -112.009327 102 1128ft 0kts
10-May-19 12:12 33.437856 -112.009327 102 1128ft 0kts
10-May-19 12:13 33.437856 -112.009327 102 1128ft 0kts
10-May-19 12:14 33.437856 -112.009327 102 1128ft 0kts
10-May-19 12:15 33.437856 -112.009327 102 1128ft 0kts
10-May-19 12:16 33.437856 -112.009327 102 1128ft 0kts
10-May-19 12:17 33.437856 -112.009327 102 1128ft 0kts
10-May-19 12:18 33.437856 -112.009327 102 1128ft 0kts
10-May-19 12:19 33.437856 -112.009327 102 1128ft 0kts
10-May-19 12:20 33.437856 -112.009327 102 1128ft 0kts
10-May-19 12:21 33.437856 -112.009327 102 1128ft 0kts
10-May-19 12:22 33.437856 -112.009327 102 1128ft 0kts
10-May-19 12:23 33.437856 -112.009327 102 1128ft 0kts
10-May-19 12:24 33.437856 -112.009327 102 1128ft 0kts
10-May-19 12:25 33.437856 -112.009327 102 1128ft 0kts
10-May-19 12:25 33.437856 -112.009327 102 1128ft 0kts
10-May-19 12:27 33.437856 -112.009327 102 1128ft 0kts
10-May-19 12:27 33.437856 -112.009327 102 1128ft 0kts
10-May-19 12:29 33.437856 -112.009327 102 1128ft 0kts
10-May-19 12:30 33.437856 -112.009327 102 1128ft 0kts
10-May-19 12:30 33.437856 -112.009327 102 1128ft 0kts
10-May-19 12:32 33.437856 -112.009327 102 1128ft 0kts
10-May-19 12:32 33.437856 -112.009327 102 1128ft 0kts
10-May-19 12:33 33.437921 -112.009666 102 1128ft 2kts
10-May-19 12:34 33.437859 -112.010222 9 1128ft 1kts
10-May-19 12:35 33.437767 -112.010222 358 1128ft 0kts
10-May-19 12:37 33.437767 -112.010222 358 1128ft 0kts
10-May-19 12:37 33.437767 -112.010222 358 1128ft 0kts
10-May-19 12:38 33.438021 -112.010213 2 1128ft 4kts
10-May-19 12:39 33.439011 -112.009120 89 1128ft 12kts
10-May-19 12:40 33.439030 -112.004553 86 1131ft 15kts
10-May-19 12:41 33.439043 -111.999023 90 1135ft 16kts
10-May-19 12:42 33.439044 -111.993270 91 1136ft 18kts
10-May-19 12:43 33.439895 -111.992254 1 1138ft 0kts
10-May-19 12:44 33.440841 -111.992821 272 1138ft 11kts
10-May-19 12:45 33.440906 -112.023320 267 1681ft 186kts
10-May-19 12:46 33.440809 -112.089935 268 4916ft 242kts
10-May-19 12:47 33.451813 -112.178201 306 7285ft 299kts
10-May-19 12:48 33.530435 -112.196857 6 10701ft 315kts
10-May-19 12:49 33.617545 -112.167349 34 13118ft 350kts
10-May-19 12:50 33.687099 -112.081638 46 15611ft 369kts
10-May-19 12:51 33.764321 -111.999338 15 18082ft 387kts
10-May-19 12:52 33.873450 -111.977787 6 20195ft 404kts
10-May-19 12:53 33.985735 -111.956593 6 22196ft 416kts
10-May-19 12:54 34.101596 -111.938006 354 24059ft 425kts
10-May-19 12:55 34.220994 -111.950890 351 25661ft 436kts
10-May-19 12:56 34.342497 -111.964280 351 27169ft 445kts
10-May-19 12:57 34.466453 -111.978066 351 28529ft 454kts
10-May-19 12:58 34.592701 -111.991975 350 29766ft 462kts
10-May-19 12:59 34.721006 -112.006192 350 30910ft 469kts
10-May-19 13:00 34.851830 -112.020833 350 31924ft 475kts
10-May-19 13:01 34.982842 -112.035569 350 32788ft 480kts
10-May-19 13:02 35.116875 -112.050719 349 33388ft 489kts
10-May-19 13:03 35.252239 -112.066117 349 34002ft 492kts
10-May-19 13:04 35.388610 -112.081405 350 34046ft 494kts
10-May-19 13:05 35.525268 -112.094786 350 34046ft 494kts
10-May-19 13:06 35.661390 -112.110874 349 34055ft 493kts
10-May-19 13:07 35.797799 -112.127308 349 34056ft 493kts
10-May-19 13:08 35.933423 -112.143628 349 34056ft 493kts
10-May-19 13:09 36.068762 -112.158224 351 34057ft 494kts
10-May-19 13:10 36.202927 -112.170028 351 34056ft 494kts
10-May-19 13:11 36.320033 -112.180484 351 34043ft 494kts
10-May-19 13:12 36.457321 -112.192727 351 34047ft 494kts
10-May-19 13:13 36.594062 -112.204968 351 34040ft 495kts
10-May-19 13:14 36.730709 -112.217250 351 34038ft 494kts
10-May-19 13:15 36.867764 -112.229628 351 34038ft 495kts
10-May-19 13:16 37.004461 -112.242003 351 34042ft 490kts
10-May-19 13:17 37.136302 -112.254044 352 34040ft 468kts
10-May-19 13:18 37.265933 -112.265859 352 34053ft 471kts
10-May-19 13:19 37.396128 -112.277784 352 34094ft 471kts
10-May-19 13:20 37.526283 -112.289816 352 34110ft 470kts
10-May-19 13:21 37.656088 -112.301724 352 34111ft 471kts
10-May-19 13:22 37.786510 -112.291489 2 34110ft 472kts
10-May-19 13:23 37.916365 -112.273623 2 34110ft 472kts
10-May-19 13:24 38.046529 -112.255721 2 34110ft 473kts
10-May-19 13:25 38.175867 -112.237811 2 34007ft 470kts
10-May-19 13:26 38.303295 -112.220212 3 32018ft 456kts
10-May-19 13:27 38.426107 -112.203156 3 30027ft 442kts
10-May-19 13:28 38.546171 -112.186460 3 27994ft 429kts
10-May-19 13:29 38.662795 -112.170146 3 25951ft 416kts
10-May-19 13:30 38.775659 -112.154350 3 23925ft 404kts
10-May-19 13:31 38.885185 -112.139231 3 21919ft 392kts
10-May-19 13:32 38.990247 -112.124698 3 20248ft 371kts
10-May-19 13:33 39.090557 -112.110789 4 18950ft 364kts
10-May-19 13:34 39.189187 -112.096986 4 17970ft 357kts
10-May-19 13:35 39.283207 -112.083884 4 17005ft 353kts
10-May-19 13:36 39.377116 -112.070633 4 16032ft 349kts
10-May-19 13:37 39.470425 -112.057398 4 15079ft 344kts
10-May-19 13:38 39.557001 -112.045048 4 15034ft 345kts
10-May-19 13:39 39.647839 -112.032077 4 15033ft 344kts
10-May-19 13:40 39.742929 -112.018531 4 15034ft 344kts
10-May-19 13:41 39.836810 -112.005084 4 15034ft 344kts
10-May-19 13:42 39.933073 -111.991292 4 14894ft 340kts
10-May-19 13:43 40.025267 -111.978547 3 13192ft 314kts
10-May-19 13:44 40.106640 -111.967546 3 11772ft 270kts
10-May-19 13:45 40.177009 -111.958197 3 11045ft 249kts
10-May-19 13:46 40.245357 -111.948713 3 11039ft 246kts
10-May-19 13:47 40.313486 -111.947056 353 10901ft 248kts
10-May-19 13:48 40.382038 -111.953517 353 10253ft 241kts
10-May-19 13:49 40.448905 -111.959924 353 9056ft 229kts
10-May-19 13:50 40.506985 -111.964813 2 9034ft 202kts
10-May-19 13:51 40.563008 -111.965135 350 8488ft 201kts
10-May-19 13:52 40.615938 -111.973597 351 7312ft 183kts
10-May-19 13:53 40.666367 -111.980512 350 6373ft 180kts
10-May-19 13:54 40.711385 -111.986951 350 5489ft 151kts
10-May-19 13:55 40.752868 -111.992654 349 4694ft 150kts
10-May-19 13:56 40.790012 -111.997232 356 4225ft 67kts
10-May-19 13:57 40.794823 -111.996747 42 4225ft 0kts
10-May-19 13:58 40.794650 -111.995475 176 4225ft 13kts
10-May-19 13:59 40.791076 -111.995000 128 4225ft 11kts
10-May-19 14:00 40.791205 -111.990723 84 4225ft 13kts
10-May-19 14:01 40.791248 -111.986299 145 4225ft 12kts
10-May-19 14:02 40.789656 -111.984794 169 4225ft 0kts
10-May-19 14:03 40.789656 -111.984794 169 4225ft 0kts

Navigation Log

Ident Type
Flight plan parsing failed, navigation log unavailable